Agua Nueva, Texas
Current Conditions -  °F | °C
As of 6:35 AM on Monday 20 Oct 2014 (Local Time) from KHBV Reporting Station
Broken Clouds Broken Clouds  
Wind Chill: 68°   Ceiling: 5000
Heat Index: 68°   Visibility: 7mi
Dew Point: 66°   Wind: 5mph
Humidity: 93%   Direction: 20°NNE
Pressure: 29.98"   Gusts: NA
Location:  27.0695°N, 98.7494°W
Report Text: KHBV 201135Z AUTO 02004KT 7SM SCT030 BKN050 20/19 A2998 RMK AO2 T02010190
Loading
Personal Weather Stations






























Interactive Weather Map New forecast layout! Learn more

10-Day Weather Forecast

Advertisements
Track Severe Weather on mobile